createdAt,value
2019-01-25T00:00:48.205Z,156.07
2019-01-25T00:03:17.465Z,152.77
2019-01-25T00:05:46.739Z,156.70
2019-01-25T00:08:16.010Z,155.07
2019-01-25T00:10:45.280Z,151.17
2019-01-25T00:13:15.644Z,144.17
2019-01-25T00:15:44.902Z,142.80
2019-01-25T00:18:14.190Z,138.20
2019-01-25T00:20:43.447Z,147.33
2019-01-25T00:23:12.738Z,149.43
2019-01-25T00:25:41.994Z,148.27
2019-01-25T00:28:11.349Z,145.47
2019-01-25T00:30:40.611Z,152.80
2019-01-25T00:33:09.883Z,142.43
2019-01-25T00:35:39.149Z,143.20
2019-01-25T00:38:08.444Z,142.10
2019-01-25T00:40:37.693Z,124.80
2019-01-25T00:43:06.902Z,121.37
2019-01-25T00:45:36.163Z,120.53
2019-01-25T00:48:05.454Z,110.10
2019-01-25T00:50:34.717Z,100.97
2019-01-25T00:53:04.255Z,100.33
2019-01-25T00:55:33.511Z,101.77
2019-01-25T00:58:02.793Z,110.40
2019-01-25T01:00:32.063Z,114.23
2019-01-25T01:03:01.360Z,102.47
2019-01-25T01:05:30.619Z,104.77
2019-01-25T01:07:59.894Z,114.60
2019-01-25T01:10:29.154Z,95.60
2019-01-25T01:12:58.431Z,111.50
2019-01-25T01:15:27.694Z,105.77
2019-01-25T01:17:56.902Z,109.00
2019-01-25T01:20:26.164Z,112.93
2019-01-25T01:22:55.447Z,113.77
2019-01-25T01:25:24.708Z,116.63
2019-01-25T01:27:53.987Z,103.90
2019-01-25T01:30:23.518Z,113.57
2019-01-25T01:32:52.802Z,104.93
2019-01-25T01:35:22.143Z,108.73
2019-01-25T01:37:53.046Z,104.80
2019-01-25T01:40:23.651Z,115.47
2019-01-25T01:42:53.116Z,118.90
2019-01-25T01:45:22.377Z,111.73
2019-01-25T01:47:51.686Z,112.27
2019-01-25T01:50:20.945Z,115.90
2019-01-25T01:52:50.208Z,112.90
2019-01-25T01:55:19.490Z,116.37
2019-01-25T01:57:49.827Z,110.37
2019-01-25T02:00:21.450Z,102.23
2019-01-25T02:02:50.641Z,115.83
2019-01-25T02:05:19.851Z,98.50
2019-01-25T02:07:49.122Z,114.90
2019-01-25T02:10:29.323Z,101.60
2019-01-25T02:12:56.062Z,117.47
2019-01-25T02:15:25.342Z,109.77
2019-01-25T02:17:54.600Z,92.40
2019-01-25T02:20:26.121Z,102.43
2019-01-25T02:22:56.168Z,82.73
2019-01-25T02:25:25.438Z,87.57
2019-01-25T02:27:54.690Z,98.30
2019-01-25T02:30:25.231Z,83.37
2019-01-25T02:32:55.475Z,92.87
2019-01-25T02:35:24.812Z,89.63
2019-01-25T02:37:54.074Z,93.87
2019-01-25T02:40:23.999Z,88.53
2019-01-25T02:42:53.252Z,81.53
2019-01-25T02:45:22.537Z,82.70
2019-01-25T02:47:52.885Z,80.90
2019-01-25T02:50:22.148Z,82.43
2019-01-25T02:52:51.400Z,90.93
2019-01-25T02:55:20.687Z,95.80
2019-01-25T02:57:49.944Z,91.43
2019-01-25T03:00:23.663Z,92.23
2019-01-25T03:02:53.458Z,101.87
2019-01-25T03:05:23.315Z,84.63
2019-01-25T03:07:52.531Z,87.33
2019-01-25T03:10:28.435Z,90.63
2019-01-25T03:12:53.258Z,80.40
2019-01-25T03:15:24.098Z,91.10
2019-01-25T03:17:53.525Z,100.37
2019-01-25T03:20:22.797Z,93.53
2019-01-25T03:22:52.129Z,100.10
2019-01-25T03:25:25.757Z,99.50
2019-01-25T03:27:55.106Z,92.07
2019-01-25T03:30:25.614Z,88.23
2019-01-25T03:32:54.965Z,86.80
2019-01-25T03:35:25.095Z,96.20
2019-01-25T03:37:54.420Z,87.57
2019-01-25T03:40:27.590Z,93.93
2019-01-25T03:42:56.839Z,88.90
2019-01-25T03:45:26.258Z,100.87
2019-01-25T03:47:56.420Z,102.10
2019-01-25T03:50:27.444Z,98.27
2019-01-25T03:52:56.695Z,100.83
2019-01-25T03:55:26.047Z,98.33
2019-01-25T03:57:55.315Z,97.67
2019-01-25T04:00:27.865Z,91.33
2019-01-25T04:02:57.175Z,82.30
2019-01-25T04:05:26.453Z,96.60
2019-01-25T04:07:55.645Z,96.13
2019-01-25T04:10:27.236Z,86.77
2019-01-25T04:12:56.487Z,90.67
2019-01-25T04:15:31.341Z,102.97
2019-01-25T04:18:00.603Z,92.03
2019-01-25T04:20:29.886Z,95.73
2019-01-25T04:22:59.147Z,82.33
2019-01-25T04:25:29.500Z,92.57
2019-01-25T04:27:58.753Z,98.77
2019-01-25T04:30:29.774Z,98.97
2019-01-25T04:32:59.026Z,90.17
2019-01-25T04:35:28.302Z,98.30
2019-01-25T04:37:57.481Z,90.77
2019-01-25T04:40:26.776Z,105.03
2019-01-25T04:42:56.018Z,85.23
2019-01-25T04:45:25.296Z,94.03
2019-01-25T04:47:54.554Z,89.00
2019-01-25T04:50:24.674Z,97.17
2019-01-25T04:52:54.004Z,101.40
2019-01-25T04:55:27.904Z,94.57
2019-01-25T04:58:06.263Z,97.50
2019-01-25T05:00:35.542Z,88.57
2019-01-25T05:03:05.054Z,90.73
2019-01-25T05:05:34.361Z,94.33
2019-01-25T05:08:06.914Z,97.60
2019-01-25T05:10:36.201Z,100.63
2019-01-25T05:13:05.452Z,96.97
2019-01-25T05:15:34.727Z,91.90
2019-01-25T05:18:04.075Z,96.93
2019-01-25T05:20:33.327Z,93.03
2019-01-25T05:23:03.646Z,91.77
2019-01-25T05:25:32.897Z,98.10
2019-01-25T05:28:13.983Z,89.63
2019-01-25T05:30:51.633Z,93.20
2019-01-25T05:33:20.815Z,97.40
2019-01-25T05:35:50.040Z,94.97
2019-01-25T05:38:19.294Z,93.80
2019-01-25T05:40:48.477Z,99.43
2019-01-25T05:43:17.766Z,90.83
2019-01-25T05:45:47.030Z,98.20
2019-01-25T05:48:16.313Z,93.70
2019-01-25T05:50:45.579Z,91.00
2019-01-25T05:53:14.854Z,94.93
2019-01-25T05:55:44.103Z,89.37
2019-01-25T05:58:13.308Z,84.33
2019-01-25T06:00:44.430Z,90.80
2019-01-25T06:03:15.290Z,100.47
2019-01-25T06:05:44.542Z,90.33
2019-01-25T06:08:31.190Z,91.40
2019-01-25T06:11:02.878Z,84.80
2019-01-25T06:13:32.163Z,94.87
2019-01-25T06:16:01.411Z,96.70
2019-01-25T06:18:30.694Z,91.43
2019-01-25T06:21:00.007Z,85.63
2019-01-25T06:23:29.295Z,94.87
2019-01-25T06:25:59.477Z,85.50
2019-01-25T06:28:28.688Z,100.00
2019-01-25T06:30:57.948Z,92.10
2019-01-25T06:33:27.233Z,96.17
2019-01-25T06:35:56.486Z,96.70
2019-01-25T06:38:25.763Z,92.83
2019-01-25T06:40:55.017Z,89.87
2019-01-25T06:43:24.213Z,96.93
2019-01-25T06:45:53.490Z,89.80
2019-01-25T06:48:22.745Z,101.13
2019-01-25T06:50:52.098Z,90.50
2019-01-25T06:53:21.298Z,93.80
2019-01-25T06:55:50.482Z,95.67
2019-01-25T06:58:36.690Z,96.80
2019-01-25T07:01:25.927Z,101.00
2019-01-25T07:03:55.207Z,99.33
2019-01-25T07:06:24.467Z,98.30
2019-01-25T07:08:53.755Z,102.67
2019-01-25T07:11:23.014Z,91.53
2019-01-25T07:13:53.357Z,91.03
2019-01-25T07:16:22.527Z,86.47
2019-01-25T07:18:51.736Z,92.00
2019-01-25T07:21:21.009Z,85.90
2019-01-25T07:23:50.296Z,94.90
2019-01-25T07:26:19.552Z,94.63
2019-01-25T07:28:48.827Z,88.97
2019-01-25T07:31:18.088Z,88.13
2019-01-25T07:33:47.370Z,73.60
2019-01-25T07:36:16.628Z,77.97
2019-01-25T07:38:45.912Z,91.57
2019-01-25T07:41:15.182Z,94.30
2019-01-25T07:43:44.454Z,88.60
2019-01-25T07:46:13.709Z,78.67
2019-01-25T07:48:43.009Z,83.70
2019-01-25T07:51:12.239Z,81.70
2019-01-25T07:53:41.516Z,83.47
2019-01-25T07:56:10.796Z,86.17
2019-01-25T07:58:40.061Z,90.33
2019-01-25T08:01:09.351Z,86.80
2019-01-25T08:03:38.626Z,98.23
2019-01-25T08:06:07.888Z,90.17
2019-01-25T08:08:37.180Z,95.90
2019-01-25T08:11:06.423Z,85.47
2019-01-25T08:13:35.705Z,83.03
2019-01-25T08:16:04.951Z,91.97
2019-01-25T08:18:34.255Z,103.77
2019-01-25T08:21:03.487Z,94.53
2019-01-25T08:23:32.766Z,85.40
2019-01-25T08:26:02.030Z,94.43
2019-01-25T08:28:31.309Z,87.90
2019-01-25T08:31:00.571Z,92.30
2019-01-25T08:33:29.830Z,100.10
2019-01-25T08:36:00.093Z,87.20
2019-01-25T08:38:29.364Z,86.47
2019-01-25T08:40:58.650Z,86.67
2019-01-25T08:43:27.903Z,89.13
2019-01-25T08:45:57.203Z,76.60
2019-01-25T08:48:26.473Z,85.30
2019-01-25T08:50:55.726Z,75.80
2019-01-25T08:53:24.930Z,79.03
2019-01-25T08:55:54.194Z,83.93
2019-01-25T08:58:23.472Z,81.23
2019-01-25T09:00:52.722Z,75.77
2019-01-25T09:03:21.971Z,69.83
2019-01-25T09:05:51.250Z,69.00
2019-01-25T09:08:20.517Z,71.63
2019-01-25T09:10:49.799Z,69.97
2019-01-25T09:13:19.052Z,76.67
2019-01-25T09:15:48.338Z,66.20
2019-01-25T09:18:17.591Z,81.40
2019-01-25T09:20:46.867Z,71.47
2019-01-25T09:23:16.123Z,71.73
2019-01-25T09:25:45.389Z,71.97
2019-01-25T09:28:14.578Z,70.43
2019-01-25T09:30:43.849Z,79.50
2019-01-25T09:33:13.035Z,74.03
2019-01-25T09:35:42.391Z,75.23
2019-01-25T09:38:11.706Z,67.33
2019-01-25T09:40:40.990Z,77.70
2019-01-25T09:43:10.314Z,76.70
2019-01-25T09:45:39.601Z,82.03
2019-01-25T09:48:09.214Z,76.87
2019-01-25T09:50:38.491Z,73.23
2019-01-25T09:53:07.741Z,76.17
2019-01-25T09:55:36.951Z,65.47
2019-01-25T09:58:15.180Z,79.60
2019-01-25T10:00:53.873Z,78.73
2019-01-25T10:03:23.110Z,83.77
2019-01-25T10:05:52.322Z,75.70
2019-01-25T10:08:21.572Z,78.23
2019-01-25T10:10:50.850Z,81.47
2019-01-25T10:13:20.101Z,83.97
2019-01-25T10:15:49.306Z,82.17
2019-01-25T10:18:18.565Z,87.47
2019-01-25T10:20:47.843Z,77.40
2019-01-25T10:23:17.100Z,83.63
2019-01-25T10:25:46.382Z,78.97
2019-01-25T10:28:15.638Z,72.37
2019-01-25T10:30:44.839Z,66.37
2019-01-25T10:33:14.096Z,72.63
2019-01-25T10:35:43.374Z,72.73
2019-01-25T10:38:12.628Z,71.90
2019-01-25T10:40:41.924Z,57.03
2019-01-25T10:43:11.178Z,65.03
2019-01-25T10:45:43.040Z,67.73
2019-01-25T10:48:12.338Z,72.67
2019-01-25T10:50:41.592Z,59.70
2019-01-25T10:53:10.873Z,57.33
2019-01-25T10:55:40.121Z,59.53
2019-01-25T10:58:09.402Z,65.57
2019-01-25T11:00:38.649Z,65.73
2019-01-25T11:03:07.935Z,67.00
2019-01-25T11:05:37.178Z,67.57
2019-01-25T11:08:06.451Z,59.30
2019-01-25T11:10:35.737Z,57.80
2019-01-25T11:13:04.947Z,62.70
2019-01-25T11:15:34.207Z,53.63
2019-01-25T11:18:03.487Z,59.50
2019-01-25T11:20:32.741Z,56.47
2019-01-25T11:23:03.210Z,56.10
2019-01-25T11:25:37.834Z,61.50
2019-01-25T11:28:07.107Z,61.97
2019-01-25T11:30:36.290Z,51.43
2019-01-25T11:33:05.833Z,58.87
2019-01-25T11:35:35.087Z,56.80
2019-01-25T11:38:04.365Z,59.67
2019-01-25T11:40:39.236Z,66.07
2019-01-25T11:43:09.246Z,59.80
2019-01-25T11:45:38.733Z,60.77
2019-01-25T11:48:10.602Z,60.90
2019-01-25T11:50:39.840Z,67.37
2019-01-25T11:53:09.124Z,63.03
2019-01-25T11:55:39.450Z,69.83
2019-01-25T11:58:08.794Z,56.37
2019-01-25T12:00:39.682Z,60.77
2019-01-25T12:03:08.961Z,65.43
2019-01-25T12:05:38.215Z,58.37
2019-01-25T12:08:07.497Z,56.43
2019-01-25T12:10:36.755Z,70.07
2019-01-25T12:13:06.047Z,63.83
2019-01-25T12:15:35.299Z,63.53
2019-01-25T12:18:05.011Z,57.60
2019-01-25T12:20:34.267Z,61.37
2019-01-25T12:23:03.543Z,63.50
2019-01-25T12:25:32.798Z,58.40
2019-01-25T12:28:05.301Z,59.17
2019-01-25T12:30:38.587Z,62.23
2019-01-25T12:33:08.203Z,66.97
2019-01-25T12:35:39.394Z,67.90
2019-01-25T12:38:08.606Z,65.87
2019-01-25T12:40:41.995Z,54.57
2019-01-25T12:43:08.764Z,70.00
2019-01-25T12:45:38.022Z,62.97
2019-01-25T12:48:07.307Z,58.10
2019-01-25T12:50:39.875Z,54.93
2019-01-25T12:53:11.773Z,66.67
2019-01-25T12:55:41.042Z,64.23
2019-01-25T12:58:11.405Z,68.90
2019-01-25T13:00:41.693Z,79.20
2019-01-25T13:03:11.712Z,71.77
2019-01-25T13:05:41.067Z,71.60
2019-01-25T13:08:10.319Z,58.70
2019-01-25T13:10:39.600Z,67.00
2019-01-25T13:13:08.875Z,73.53
2019-01-25T13:15:38.169Z,69.40
2019-01-25T13:18:07.442Z,64.23
2019-01-25T13:20:39.478Z,72.07
2019-01-25T13:23:07.530Z,61.93
2019-01-25T13:25:36.810Z,70.87
2019-01-25T13:28:06.071Z,61.57
2019-01-25T13:30:36.327Z,65.63
2019-01-25T13:33:05.857Z,67.87
2019-01-25T13:35:35.138Z,66.67
2019-01-25T13:38:04.400Z,57.47
2019-01-25T13:40:33.679Z,64.87
2019-01-25T13:43:02.930Z,62.73
2019-01-25T13:45:32.201Z,61.67
2019-01-25T13:48:01.462Z,53.53
2019-01-25T13:50:31.002Z,60.93
2019-01-25T13:53:00.186Z,67.13
2019-01-25T13:55:29.473Z,51.17
2019-01-25T13:57:58.721Z,60.00
2019-01-25T14:00:29.959Z,66.87
2019-01-25T14:02:59.218Z,55.87
2019-01-25T14:05:28.495Z,60.10
2019-01-25T14:07:58.132Z,60.00
2019-01-25T14:10:31.282Z,65.73
2019-01-25T14:13:00.538Z,59.87
2019-01-25T14:15:29.819Z,60.63
2019-01-25T14:17:59.077Z,59.17
2019-01-25T14:20:30.508Z,64.27
2019-01-25T14:22:59.754Z,65.10
2019-01-25T14:25:28.963Z,66.37
2019-01-25T14:27:58.213Z,62.10
2019-01-25T14:30:32.923Z,75.87
2019-01-25T14:33:12.714Z,72.77
2019-01-25T14:35:41.919Z,78.30
2019-01-25T14:38:13.155Z,69.13
2019-01-25T14:40:42.432Z,75.43
2019-01-25T14:43:11.774Z,70.77
2019-01-25T14:45:41.084Z,80.37
2019-01-25T14:48:10.346Z,72.57
2019-01-25T14:50:39.643Z,70.83
2019-01-25T14:53:08.894Z,71.73
2019-01-25T14:55:38.170Z,69.53
2019-01-25T14:58:07.423Z,75.97
2019-01-25T15:00:36.690Z,76.40
2019-01-25T15:03:05.952Z,82.60
2019-01-25T15:05:35.226Z,84.97
2019-01-25T15:08:04.401Z,79.73
2019-01-25T15:10:35.107Z,81.47
2019-01-25T15:13:05.294Z,85.40
2019-01-25T15:15:34.470Z,99.23
2019-01-25T15:18:04.719Z,98.57
2019-01-25T15:20:33.970Z,88.20
2019-01-25T15:23:03.322Z,95.20
2019-01-25T15:25:32.583Z,93.53
2019-01-25T15:28:01.871Z,95.40
2019-01-25T15:30:31.126Z,94.93
2019-01-25T15:33:00.334Z,99.27
2019-01-25T15:35:30.666Z,93.17
2019-01-25T15:38:00.016Z,101.23
2019-01-25T15:40:29.275Z,95.50
2019-01-25T15:42:58.554Z,97.70
2019-01-25T15:45:28.881Z,104.33
2019-01-25T15:47:58.163Z,107.50
2019-01-25T15:50:29.308Z,84.87
2019-01-25T15:52:58.605Z,111.57
2019-01-25T15:55:27.868Z,106.67
2019-01-25T15:57:57.146Z,98.53
2019-01-25T16:00:28.042Z,105.83
2019-01-25T16:02:57.326Z,121.70
2019-01-25T16:05:26.604Z,111.13
2019-01-25T16:07:55.877Z,111.27
2019-01-25T16:10:25.146Z,111.67
2019-01-25T16:12:54.426Z,114.63
2019-01-25T16:15:28.414Z,109.03
2019-01-25T16:18:06.849Z,110.90
2019-01-25T16:20:36.531Z,114.00
2019-01-25T16:23:05.810Z,108.90
2019-01-25T16:25:35.066Z,108.87
2019-01-25T16:28:04.414Z,110.87
2019-01-25T16:30:35.323Z,123.93
2019-01-25T16:33:04.684Z,115.17
2019-01-25T16:35:33.933Z,112.67
2019-01-25T16:38:03.142Z,131.07
2019-01-25T16:40:33.365Z,117.07
2019-01-25T16:43:02.652Z,126.63
2019-01-25T16:45:37.847Z,122.87
2019-01-25T16:48:07.368Z,107.63
2019-01-25T16:50:36.706Z,126.90
2019-01-25T16:53:07.746Z,109.03
2019-01-25T16:55:37.016Z,127.00
2019-01-25T16:58:06.433Z,112.20
2019-01-25T17:00:38.494Z,123.77
2019-01-25T17:03:07.787Z,121.90
2019-01-25T17:05:37.037Z,114.43
2019-01-25T17:08:06.322Z,118.93
2019-01-25T17:10:35.571Z,119.80
2019-01-25T17:13:04.852Z,114.23
2019-01-25T17:15:34.114Z,127.20
2019-01-25T17:18:03.398Z,122.87
2019-01-25T17:20:32.658Z,123.03
2019-01-25T17:23:02.119Z,125.93
2019-01-25T17:25:31.378Z,120.40
2019-01-25T17:28:00.659Z,114.40
2019-01-25T17:30:32.253Z,114.37
2019-01-25T17:33:01.818Z,125.23
2019-01-25T17:35:32.196Z,121.70
2019-01-25T17:38:02.224Z,118.70
2019-01-25T17:40:37.146Z,121.67
2019-01-25T17:43:06.429Z,117.60
2019-01-25T17:45:35.697Z,115.27
2019-01-25T17:48:05.725Z,122.67
2019-01-25T17:50:34.986Z,101.17
2019-01-25T17:53:04.327Z,117.23
2019-01-25T17:55:33.673Z,113.10
2019-01-25T17:58:08.243Z,115.47
2019-01-25T18:00:35.492Z,115.30
2019-01-25T18:03:05.026Z,109.70
2019-01-25T18:05:34.817Z,108.37
2019-01-25T18:08:04.232Z,112.90
2019-01-25T18:10:33.581Z,107.83
2019-01-25T18:13:02.842Z,113.33
2019-01-25T18:15:32.154Z,100.07
2019-01-25T18:18:01.339Z,94.63
2019-01-25T18:20:31.752Z,105.50
2019-01-25T18:23:01.014Z,94.10
2019-01-25T18:25:46.114Z,96.23
2019-01-25T18:28:21.434Z,81.30
2019-01-25T18:31:05.804Z,91.83
2019-01-25T18:33:35.053Z,87.07
2019-01-25T18:36:04.259Z,84.03
2019-01-25T18:38:33.508Z,95.43
2019-01-25T18:41:02.780Z,100.50
2019-01-25T18:43:32.031Z,99.20
2019-01-25T18:46:01.304Z,90.20
2019-01-25T18:48:30.568Z,90.17
2019-01-25T18:50:59.841Z,78.67
2019-01-25T18:53:29.013Z,79.30
2019-01-25T18:55:58.316Z,81.50
2019-01-25T18:58:27.594Z,86.50
2019-01-25T19:00:56.807Z,75.20
2019-01-25T19:03:26.041Z,86.40
2019-01-25T19:05:55.242Z,74.70
2019-01-25T19:08:24.496Z,71.80
2019-01-25T19:10:53.840Z,79.03
2019-01-25T19:13:24.157Z,78.50
2019-01-25T19:15:53.442Z,72.53
2019-01-25T19:18:22.626Z,62.67
2019-01-25T19:20:51.895Z,65.03
2019-01-25T19:23:21.142Z,64.93
2019-01-25T19:25:50.418Z,75.80
2019-01-25T19:28:19.671Z,71.00
2019-01-25T19:30:49.011Z,70.90
2019-01-25T19:33:18.259Z,56.73
2019-01-25T19:35:47.610Z,56.63
2019-01-25T19:38:16.867Z,57.57
2019-01-25T19:40:46.212Z,48.73
2019-01-25T19:43:15.459Z,63.20
2019-01-25T19:45:44.727Z,61.70
2019-01-25T19:48:14.047Z,71.40
2019-01-25T19:50:43.402Z,61.83
2019-01-25T19:53:12.683Z,53.20
2019-01-25T19:55:41.930Z,62.60
2019-01-25T19:58:13.649Z,57.37
2019-01-25T20:00:45.068Z,49.90
2019-01-25T20:03:14.409Z,49.20
2019-01-25T20:05:43.661Z,50.80
2019-01-25T20:08:12.931Z,45.50
2019-01-25T20:10:42.173Z,47.97
2019-01-25T20:13:12.011Z,48.90
2019-01-25T20:15:41.258Z,49.77
2019-01-25T20:18:10.535Z,38.93
2019-01-25T20:20:40.572Z,66.33
2019-01-25T20:23:09.806Z,45.93
2019-01-25T20:25:39.054Z,57.83
2019-01-25T20:28:09.576Z,56.43
2019-01-25T20:30:38.915Z,59.27
2019-01-25T20:33:08.246Z,58.83
2019-01-25T20:35:40.000Z,41.57
2019-01-25T20:38:09.275Z,59.03
2019-01-25T20:40:38.617Z,63.00
2019-01-25T20:43:07.869Z,51.13
2019-01-25T20:45:41.451Z,53.50
2019-01-25T20:48:10.751Z,43.67
2019-01-25T20:50:40.002Z,47.73
2019-01-25T20:53:11.912Z,51.60
2019-01-25T20:55:42.806Z,44.17
2019-01-25T20:58:12.109Z,50.60
2019-01-25T21:00:41.429Z,49.30
2019-01-25T21:03:13.369Z,49.23
2019-01-25T21:05:42.615Z,41.63
2019-01-25T21:08:11.889Z,40.73
2019-01-25T21:10:41.126Z,50.67
2019-01-25T21:13:10.332Z,44.37
2019-01-25T21:15:39.584Z,44.43
2019-01-25T21:18:08.864Z,53.33
2019-01-25T21:20:40.459Z,52.00
2019-01-25T21:23:09.738Z,37.07
2019-01-25T21:25:38.992Z,43.20
2019-01-25T21:28:08.268Z,51.47
2019-01-25T21:30:37.581Z,36.60
2019-01-25T21:33:06.846Z,45.23
2019-01-25T21:35:36.090Z,41.77
2019-01-25T21:38:05.506Z,40.47
2019-01-25T21:40:35.248Z,46.17
2019-01-25T21:43:04.862Z,44.53
2019-01-25T21:45:34.974Z,40.63
2019-01-25T21:48:06.084Z,39.80
2019-01-25T21:50:38.274Z,39.57
2019-01-25T21:53:07.477Z,35.13
2019-01-25T21:55:36.731Z,43.90
2019-01-25T21:58:06.190Z,43.43
2019-01-25T22:00:36.108Z,42.10
2019-01-25T22:03:05.720Z,40.53
2019-01-25T22:05:35.045Z,40.70
2019-01-25T22:08:04.383Z,39.93
2019-01-25T22:10:36.372Z,44.17
2019-01-25T22:13:05.593Z,45.93
2019-01-25T22:15:34.870Z,42.13
2019-01-25T22:18:04.126Z,41.47
2019-01-25T22:20:33.379Z,39.03
2019-01-25T22:23:02.694Z,39.80
2019-01-25T22:25:33.410Z,39.23
2019-01-25T22:28:02.695Z,36.43
2019-01-25T22:30:31.983Z,30.90
2019-01-25T22:33:01.239Z,33.53
2019-01-25T22:35:30.512Z,31.37
2019-01-25T22:37:59.760Z,30.80
2019-01-25T22:40:30.185Z,32.57
2019-01-25T22:42:59.454Z,34.50
2019-01-25T22:45:29.779Z,32.10
2019-01-25T22:47:59.898Z,35.20
2019-01-25T22:50:31.291Z,33.50
2019-01-25T22:53:00.499Z,32.77
2019-01-25T22:55:29.750Z,31.57
2019-01-25T22:57:59.025Z,30.67
2019-01-25T23:00:51.142Z,28.43
2019-01-25T23:03:24.282Z,20.03
2019-01-25T23:06:05.342Z,26.77
2019-01-25T23:08:34.615Z,30.97
2019-01-25T23:11:03.872Z,34.50
2019-01-25T23:13:33.147Z,23.70
2019-01-25T23:16:06.444Z,26.53
2019-01-25T23:18:34.363Z,27.50
2019-01-25T23:21:03.632Z,21.10
2019-01-25T23:23:32.916Z,25.27
2019-01-25T23:26:02.235Z,27.87
2019-01-25T23:28:31.486Z,29.13
2019-01-25T23:31:00.777Z,28.97
2019-01-25T23:33:30.015Z,29.27
2019-01-25T23:35:59.296Z,26.20
2019-01-25T23:38:28.539Z,25.10
2019-01-25T23:40:57.814Z,24.93
2019-01-25T23:43:27.067Z,25.77
2019-01-25T23:45:56.348Z,25.83
2019-01-25T23:48:25.595Z,25.07
2019-01-25T23:50:54.874Z,26.47
2019-01-25T23:53:24.139Z,24.13
2019-01-25T23:55:53.402Z,22.53
2019-01-25T23:58:22.652Z,22.87
